createdAt,value
2018-12-24T00:12:56.497Z,99910.33
2018-12-24T00:20:19.427Z,99908.58
2018-12-24T00:23:49.615Z,99927.66
2018-12-24T00:25:28.380Z,99931.14
2018-12-24T00:27:12.706Z,99926.59
2018-12-24T00:29:00.328Z,99930.73
2018-12-24T00:30:48.295Z,99934.70
2018-12-24T00:32:28.746Z,99937.51
2018-12-24T00:34:12.620Z,99939.25
2018-12-24T00:35:53.280Z,99935.87
2018-12-24T00:37:36.832Z,99941.36
2018-12-24T00:39:25.404Z,99936.34
2018-12-24T00:41:03.916Z,99945.86
2018-12-24T00:42:42.796Z,99946.77
2018-12-24T00:44:23.765Z,99944.28
2018-12-24T00:46:10.399Z,99941.86
2018-12-24T00:52:46.228Z,99939.73
2018-12-24T00:55:36.584Z,99939.41
2018-12-24T00:58:47.147Z,99935.71
2018-12-24T01:06:57.583Z,99934.22
2018-12-24T01:09:05.705Z,99945.88
2018-12-24T01:10:47.056Z,99941.86
2018-12-24T01:14:32.710Z,99943.88
2018-12-24T01:16:26.627Z,99937.00
2018-12-24T01:18:07.976Z,99939.73
2018-12-24T01:19:57.075Z,99936.48
2018-12-24T01:22:07.857Z,99940.66
2018-12-24T01:23:49.267Z,99927.36
2018-12-24T01:25:37.559Z,99926.22
2018-12-24T01:27:23.345Z,99925.09
2018-12-24T01:33:41.190Z,99934.23
2018-12-24T01:57:06.565Z,99929.05
2018-12-24T01:59:00.002Z,99928.06
2018-12-24T02:01:08.161Z,99928.63
2018-12-24T02:03:14.012Z,99936.25
2018-12-24T02:05:26.004Z,99938.89
2018-12-24T02:07:03.750Z,99933.47
2018-12-24T02:08:42.698Z,99934.61
2018-12-24T02:10:24.084Z,99940.13
2018-12-24T02:12:03.751Z,99933.21
2018-12-24T02:13:48.327Z,99934.95
2018-12-24T02:15:26.602Z,99935.88
2018-12-24T02:17:03.518Z,99934.17
2018-12-24T02:18:42.646Z,99938.25
2018-12-24T02:20:22.983Z,99940.98
2018-12-24T02:22:02.799Z,99945.02
2018-12-24T02:23:37.700Z,99933.53
2018-12-24T02:25:12.582Z,99934.45
2018-12-24T02:26:47.577Z,99934.98
2018-12-24T02:28:22.531Z,99931.34
2018-12-24T02:29:57.461Z,99934.38
2018-12-24T02:31:32.464Z,99935.71
2018-12-24T02:33:07.456Z,99940.59
2018-12-24T02:34:42.405Z,99935.86
2018-12-24T02:36:17.440Z,99938.28
2018-12-24T02:37:52.391Z,99947.58
2018-12-24T02:39:27.363Z,99939.34
2018-12-24T02:41:02.303Z,99936.91
2018-12-24T02:42:37.272Z,99943.50
2018-12-24T02:44:12.217Z,99944.94
2018-12-24T02:45:47.128Z,99945.74
2018-12-24T02:47:22.152Z,99944.94
2018-12-24T02:48:57.065Z,99942.25
2018-12-24T02:50:31.940Z,99949.05
2018-12-24T02:52:06.882Z,99946.60
2018-12-24T02:53:41.888Z,99937.77
2018-12-24T02:55:16.792Z,99942.30
2018-12-24T02:56:51.674Z,99939.87
2018-12-24T02:58:26.592Z,99943.80
2018-12-24T03:00:01.519Z,99942.44
2018-12-24T03:01:36.463Z,99945.24
2018-12-24T03:03:11.415Z,99952.31
2018-12-24T03:04:46.397Z,99955.77
2018-12-24T03:06:21.351Z,99952.94
2018-12-24T03:07:56.296Z,99951.31
2018-12-24T03:09:31.246Z,99961.77
2018-12-24T03:11:06.227Z,99961.91
2018-12-24T03:12:41.144Z,99973.20
2018-12-24T03:14:16.051Z,99980.48
2018-12-24T03:15:51.116Z,99975.55
2018-12-24T03:17:26.028Z,99974.53
2018-12-24T03:19:00.981Z,99977.51
2018-12-24T03:20:35.877Z,99969.48
2018-12-24T03:22:10.924Z,99970.84
2018-12-24T03:23:45.819Z,99973.88
2018-12-24T03:25:20.743Z,99968.84
2018-12-24T03:26:55.674Z,99966.59
2018-12-24T03:28:30.675Z,99967.69
2018-12-24T03:30:05.944Z,99971.25
2018-12-24T03:31:40.873Z,99968.05
2018-12-24T03:33:15.839Z,99969.52
2018-12-24T03:34:50.827Z,99967.83
2018-12-24T03:36:25.736Z,99967.88
2018-12-24T03:38:00.776Z,99970.44
2018-12-24T03:39:35.676Z,99977.00
2018-12-24T03:41:10.604Z,99971.11
2018-12-24T03:42:45.584Z,99980.16
2018-12-24T03:44:20.628Z,99981.47
2018-12-24T03:45:55.566Z,99979.73
2018-12-24T03:47:30.587Z,99982.61
2018-12-24T03:49:05.557Z,99989.99
2018-12-24T03:50:40.716Z,99977.98
2018-12-24T03:52:15.685Z,99978.77
2018-12-24T03:53:50.631Z,99986.44
2018-12-24T03:55:25.596Z,99985.68
2018-12-24T03:57:00.598Z,99996.81
2018-12-24T03:58:35.484Z,99994.66
2018-12-24T04:00:10.595Z,99990.92
2018-12-24T04:01:45.551Z,99998.46
2018-12-24T04:03:20.652Z,99999.02
2018-12-24T04:04:55.693Z,100005.23
2018-12-24T04:06:30.605Z,100011.42
2018-12-24T04:08:05.553Z,100006.81
2018-12-24T04:09:41.276Z,100011.49
2018-12-24T04:11:16.251Z,100009.89
2018-12-24T04:12:51.175Z,100013.34
2018-12-24T04:14:26.144Z,100017.39
2018-12-24T04:16:01.145Z,100020.72
2018-12-24T04:17:36.109Z,100023.19
2018-12-24T04:19:11.033Z,100033.98
2018-12-24T04:20:46.064Z,100036.27
2018-12-24T04:22:21.032Z,100039.25
2018-12-24T04:23:55.993Z,100043.84
2018-12-24T04:25:30.956Z,100044.63
2018-12-24T04:27:06.443Z,100054.25
2018-12-24T04:28:41.430Z,100057.01
2018-12-24T04:30:16.364Z,100058.73
2018-12-24T04:31:51.284Z,100062.93
2018-12-24T04:33:26.250Z,100063.45
2018-12-24T04:35:01.194Z,100068.75
2018-12-24T04:36:36.112Z,100077.97
2018-12-24T04:38:11.024Z,100084.00
2018-12-24T04:39:46.029Z,100086.62
2018-12-24T04:41:20.956Z,100094.39
2018-12-24T04:42:55.876Z,100098.34
2018-12-24T04:44:30.859Z,100103.16
2018-12-24T04:46:05.890Z,100110.60
2018-12-24T04:47:40.586Z,100118.46
2018-12-24T04:49:15.535Z,100121.11
2018-12-24T04:50:50.439Z,100128.87
2018-12-24T04:52:25.453Z,100137.27
2018-12-24T04:54:00.367Z,100134.59
2018-12-24T04:55:35.277Z,100146.02
2018-12-24T04:57:10.243Z,100149.23
2018-12-24T04:58:45.166Z,100160.16
2018-12-24T05:00:20.075Z,100161.88
2018-12-24T05:01:54.968Z,100166.37
2018-12-24T05:03:29.939Z,100173.95
2018-12-24T05:05:04.978Z,100180.88
2018-12-24T05:06:39.895Z,100189.81
2018-12-24T05:08:14.895Z,100194.70
2018-12-24T05:09:49.827Z,100203.13
2018-12-24T05:11:24.736Z,100205.08
2018-12-24T05:12:59.643Z,100215.86
2018-12-24T05:14:34.612Z,100219.84
2018-12-24T05:16:09.745Z,100228.73
2018-12-24T05:17:44.657Z,100239.31
2018-12-24T05:19:19.764Z,100251.91
2018-12-24T05:20:54.728Z,100255.64
2018-12-24T05:22:29.658Z,100262.92
2018-12-24T05:24:04.662Z,100272.02
2018-12-24T05:25:39.562Z,100282.84
2018-12-24T05:27:15.516Z,100293.06
2018-12-24T05:28:50.428Z,100314.97
2018-12-24T05:30:25.390Z,100326.86
2018-12-24T05:32:00.283Z,100322.77
2018-12-24T05:33:35.190Z,100340.30
2018-12-24T05:35:09.682Z,100342.49
2018-12-24T05:36:44.236Z,100349.39
2018-12-24T05:38:18.753Z,100360.01
2018-12-24T05:39:53.710Z,100367.52
2018-12-24T05:41:28.572Z,100374.48
2018-12-24T05:43:03.536Z,100391.19
2018-12-24T05:44:38.540Z,100389.33
2018-12-24T05:46:13.480Z,100400.08
2018-12-24T05:47:48.361Z,100411.56
2018-12-24T05:49:23.371Z,100422.48
2018-12-24T05:50:58.452Z,100421.24
2018-12-24T05:52:33.404Z,100433.20
2018-12-24T05:54:08.303Z,100435.00
2018-12-24T05:55:43.277Z,100442.23
2018-12-24T05:57:18.243Z,100449.08
2018-12-24T05:58:53.159Z,100450.31
2018-12-24T06:00:28.189Z,100458.11
2018-12-24T06:02:03.201Z,100464.75
2018-12-24T18:13:28.760Z,101835.12
2018-12-24T18:15:03.579Z,101828.54
2018-12-24T18:16:38.510Z,101827.94
2018-12-24T18:18:13.261Z,101833.47
2018-12-24T18:19:47.949Z,101826.50
2018-12-24T18:21:22.575Z,101835.91
2018-12-24T18:22:57.232Z,101839.22
2018-12-24T18:24:31.907Z,101832.38
2018-12-24T18:26:06.626Z,101840.50
2018-12-24T18:27:41.268Z,101833.92
2018-12-24T18:29:16.276Z,101831.67
2018-12-24T18:30:50.993Z,101831.20
2018-12-24T18:32:25.783Z,101833.44
2018-12-24T18:34:00.583Z,101830.73
2018-12-24T18:35:35.339Z,101835.04
2018-12-24T18:37:11.051Z,101825.66
2018-12-24T18:38:45.681Z,101829.24
2018-12-24T18:40:20.415Z,101831.39
2018-12-24T18:41:55.099Z,101831.84
2018-12-24T18:43:29.842Z,101824.95
2018-12-24T18:45:04.763Z,101829.39
2018-12-24T18:46:39.394Z,101828.75
2018-12-24T18:48:14.174Z,101830.11
2018-12-24T18:49:48.819Z,101828.40
2018-12-24T18:51:23.851Z,101828.81
2018-12-24T18:52:58.649Z,101825.41
2018-12-24T18:54:33.493Z,101829.49
2018-12-24T18:56:08.280Z,101828.70
2018-12-24T18:57:43.017Z,101827.02
2018-12-24T18:59:18.059Z,101831.52
2018-12-24T19:00:53.156Z,101831.47
2018-12-24T19:02:27.893Z,101834.18
2018-12-24T19:04:02.550Z,101840.10
2018-12-24T19:05:37.376Z,101837.27
2018-12-24T19:07:12.142Z,101833.08
2018-12-24T19:08:47.076Z,101835.83
2018-12-24T19:10:21.932Z,101834.67
2018-12-24T19:11:56.871Z,101823.83
2018-12-24T19:13:31.508Z,101822.34
2018-12-24T19:15:06.320Z,101809.37
2018-12-24T19:16:41.096Z,101797.17
2018-12-24T19:18:15.831Z,101804.03
2018-12-24T19:19:50.664Z,101804.25
2018-12-24T19:21:25.494Z,101801.64
2018-12-24T19:23:00.180Z,101792.23
2018-12-24T19:24:35.175Z,101785.77
2018-12-24T19:26:09.835Z,101787.93
2018-12-24T19:27:44.657Z,101790.00
2018-12-24T19:29:19.347Z,101797.14
2018-12-24T19:30:54.249Z,101804.50
2018-12-24T19:32:29.025Z,101797.69
2018-12-24T19:34:04.747Z,101802.31
2018-12-24T19:35:41.345Z,101805.92
2018-12-24T19:37:16.291Z,101802.57
2018-12-24T19:38:50.955Z,101802.16
2018-12-24T19:40:25.637Z,101795.82
2018-12-24T19:42:00.531Z,101801.89
2018-12-24T19:43:35.264Z,101812.80
2018-12-24T19:45:09.917Z,101811.67
2018-12-24T19:46:44.631Z,101803.48
2018-12-24T19:48:19.284Z,101799.23
2018-12-24T19:49:53.982Z,101797.75
2018-12-24T19:51:28.812Z,101798.66
2018-12-24T19:53:04.914Z,101801.38
2018-12-24T19:54:39.634Z,101794.64
2018-12-24T19:56:14.373Z,101797.64
2018-12-24T19:57:49.100Z,101803.86
2018-12-24T19:59:23.878Z,101813.16
2018-12-24T20:00:58.754Z,101813.42
2018-12-24T20:02:33.468Z,101812.73
2018-12-24T20:04:08.201Z,101810.29
2018-12-24T20:05:42.951Z,101803.76
2018-12-24T20:07:17.734Z,101808.23
2018-12-24T20:08:52.459Z,101806.80
2018-12-24T20:10:27.120Z,101811.77
2018-12-24T20:12:04.393Z,101814.01
2018-12-24T20:13:39.123Z,101808.70
2018-12-24T20:15:13.774Z,101811.13
2018-12-24T20:16:48.526Z,101816.95
2018-12-24T20:18:23.307Z,101807.41
2018-12-24T20:19:58.015Z,101816.72
2018-12-24T20:21:32.681Z,101811.05
2018-12-24T20:23:07.440Z,101815.06
2018-12-24T20:24:42.300Z,101819.06
2018-12-24T20:26:17.027Z,101816.47
2018-12-24T20:27:51.711Z,101815.24
2018-12-24T20:29:26.488Z,101818.72
2018-12-24T20:31:01.260Z,101819.27
2018-12-24T20:32:35.920Z,101811.00
2018-12-24T20:34:10.634Z,101816.84
2018-12-24T20:35:45.357Z,101815.92
2018-12-24T20:37:20.089Z,101825.51
2018-12-24T20:38:54.833Z,101817.64
2018-12-24T20:40:29.530Z,101820.81
2018-12-24T20:42:04.161Z,101816.15
2018-12-24T20:43:38.862Z,101822.76
2018-12-24T20:45:13.585Z,101829.94
2018-12-24T20:46:48.341Z,101827.65
2018-12-24T20:48:23.151Z,101835.23
2018-12-24T20:49:57.835Z,101834.72
2018-12-24T20:51:32.539Z,101830.92
2018-12-24T20:53:07.161Z,101837.64
2018-12-24T20:54:41.855Z,101838.75
2018-12-24T20:56:16.564Z,101849.23
2018-12-24T20:57:51.244Z,101847.44
2018-12-24T20:59:25.897Z,101847.86
2018-12-24T21:01:00.651Z,101853.11
2018-12-24T21:02:35.392Z,101850.05
2018-12-24T21:04:10.178Z,101850.47
2018-12-24T21:05:44.897Z,101856.69
2018-12-24T21:07:19.668Z,101859.39
2018-12-24T21:08:54.286Z,101858.07
2018-12-24T21:10:28.932Z,101859.41
2018-12-24T21:12:03.634Z,101861.69
2018-12-24T21:13:38.299Z,101864.94
2018-12-24T21:15:12.989Z,101864.34
2018-12-24T21:16:47.572Z,101862.38
2018-12-24T21:18:22.640Z,101858.20
2018-12-24T21:19:57.833Z,101860.33
2018-12-24T21:21:33.073Z,101856.98
2018-12-24T21:23:08.113Z,101854.36
2018-12-24T21:24:42.744Z,101860.75
2018-12-24T21:26:17.447Z,101861.00
2018-12-24T21:27:52.112Z,101863.23
2018-12-24T21:29:26.773Z,101855.25
2018-12-24T21:31:01.504Z,101856.17
2018-12-24T21:32:36.245Z,101852.09
2018-12-24T21:34:10.854Z,101862.47
2018-12-24T21:35:45.480Z,101870.33
2018-12-24T21:37:20.120Z,101866.44
2018-12-24T21:38:54.846Z,101870.43
2018-12-24T21:40:29.454Z,101871.17
2018-12-24T21:42:04.041Z,101869.16
2018-12-24T21:43:38.687Z,101871.64
2018-12-24T21:45:13.404Z,101871.41
2018-12-24T21:46:48.009Z,101872.25
2018-12-24T21:48:23.902Z,101872.20
2018-12-24T21:49:58.851Z,101860.97
2018-12-24T21:51:33.550Z,101861.55
2018-12-24T21:53:08.235Z,101859.36
2018-12-24T21:54:42.915Z,101849.36
2018-12-24T21:56:17.788Z,101846.96
2018-12-24T21:57:52.867Z,101844.11
2018-12-24T21:59:27.439Z,101837.62
2018-12-24T22:01:02.031Z,101828.54
2018-12-24T22:02:36.616Z,101828.22
2018-12-24T22:04:11.292Z,101830.30
2018-12-24T22:05:45.914Z,101832.61
2018-12-24T22:07:20.519Z,101829.52
2018-12-24T22:08:55.108Z,101833.72
2018-12-24T22:10:29.823Z,101829.90
2018-12-24T22:12:04.607Z,101832.86
2018-12-24T22:13:39.220Z,101828.06
2018-12-24T22:15:13.893Z,101826.88
2018-12-24T22:16:48.595Z,101821.80
2018-12-24T22:18:23.268Z,101815.25
2018-12-24T22:19:57.923Z,101813.76
2018-12-24T22:21:32.628Z,101818.16
2018-12-24T22:23:07.385Z,101813.09
2018-12-24T22:24:41.991Z,101815.28
2018-12-24T22:26:16.699Z,101802.95
2018-12-24T22:27:51.425Z,101800.42
2018-12-24T22:29:26.342Z,101797.50
2018-12-24T22:31:01.022Z,101791.47
2018-12-24T22:32:35.776Z,101790.09
2018-12-24T22:34:10.387Z,101790.20
2018-12-24T22:35:45.166Z,101790.35
2018-12-24T22:37:19.930Z,101791.38
2018-12-24T22:38:54.665Z,101787.44
2018-12-24T22:40:29.326Z,101793.11
2018-12-24T22:42:04.104Z,101785.33
2018-12-24T22:43:38.789Z,101782.56
2018-12-24T22:45:13.391Z,101779.27
2018-12-24T22:46:48.471Z,101773.41
2018-12-24T22:48:23.098Z,101777.11
2018-12-24T22:49:57.819Z,101768.33
2018-12-24T22:51:32.401Z,101770.98
2018-12-24T22:53:07.114Z,101776.36
2018-12-24T22:54:41.770Z,101765.92
2018-12-24T22:56:16.454Z,101772.05
2018-12-24T22:57:51.064Z,101773.65
2018-12-24T22:59:25.943Z,101769.42
2018-12-24T23:01:00.614Z,101770.59
2018-12-24T23:02:35.220Z,101767.05
2018-12-24T23:04:09.944Z,101768.52
2018-12-24T23:05:44.658Z,101765.80
2018-12-24T23:07:19.343Z,101757.23
2018-12-24T23:08:54.263Z,101765.03
2018-12-24T23:10:28.863Z,101759.61
2018-12-24T23:12:03.527Z,101763.44
2018-12-24T23:13:38.206Z,101766.27
2018-12-24T23:15:12.980Z,101765.41
2018-12-24T23:16:50.312Z,101765.99
2018-12-24T23:18:24.995Z,101778.09
2018-12-24T23:19:59.688Z,101774.62
2018-12-24T23:21:34.379Z,101773.30
2018-12-24T23:23:08.999Z,101783.02
2018-12-24T23:24:43.662Z,101784.56
2018-12-24T23:26:18.380Z,101791.59
2018-12-24T23:27:53.082Z,101788.55
2018-12-24T23:29:27.781Z,101790.52
2018-12-24T23:31:02.780Z,101786.78
2018-12-24T23:32:37.931Z,101785.80
2018-12-24T23:34:12.603Z,101786.39
2018-12-24T23:35:47.179Z,101789.42
2018-12-24T23:37:23.276Z,101785.50
2018-12-24T23:38:58.079Z,101785.34
2018-12-24T23:40:33.310Z,101785.42
2018-12-24T23:42:08.040Z,101793.28
2018-12-24T23:43:44.092Z,101787.85
2018-12-24T23:45:19.235Z,101781.99
2018-12-24T23:46:53.879Z,101773.47
2018-12-24T23:48:28.524Z,101777.14
2018-12-24T23:50:03.577Z,101779.17
2018-12-24T23:51:38.198Z,101774.77
2018-12-24T23:53:12.844Z,101777.58
2018-12-24T23:54:47.519Z,101769.42
2018-12-24T23:56:22.111Z,101771.47
2018-12-24T23:57:56.724Z,101774.34
2018-12-24T23:59:31.297Z,101780.27
